sensor_id;sensor_type;location;lat;lon;timestamp;P1;durP1;ratioP1;P2;durP2;ratioP2
8312;SDS011;4194;43.408;24.626;2023-08-01T00:00:49;4.50;;;3.50;;
8312;SDS011;4194;43.408;24.626;2023-08-01T00:03:15;5.13;;;3.83;;
8312;SDS011;4194;43.408;24.626;2023-08-01T00:05:40;3.97;;;3.67;;
8312;SDS011;4194;43.408;24.626;2023-08-01T00:08:13;4.30;;;3.90;;
8312;SDS011;4194;43.408;24.626;2023-08-01T00:10:39;4.87;;;4.03;;
8312;SDS011;4194;43.408;24.626;2023-08-01T00:13:05;4.33;;;3.93;;
8312;SDS011;4194;43.408;24.626;2023-08-01T00:15:31;6.30;;;3.77;;
8312;SDS011;4194;43.408;24.626;2023-08-01T00:17:56;4.43;;;3.50;;
8312;SDS011;4194;43.408;24.626;2023-08-01T00:20:22;3.70;;;3.40;;
8312;SDS011;4194;43.408;24.626;2023-08-01T00:22:48;3.93;;;3.30;;
8312;SDS011;4194;43.408;24.626;2023-08-01T00:25:13;3.70;;;3.40;;
8312;SDS011;4194;43.408;24.626;2023-08-01T00:27:39;5.47;;;3.80;;
8312;SDS011;4194;43.408;24.626;2023-08-01T00:30:05;4.10;;;3.67;;
8312;SDS011;4194;43.408;24.626;2023-08-01T00:32:32;4.73;;;3.10;;
8312;SDS011;4194;43.408;24.626;2023-08-01T00:34:57;3.63;;;3.30;;
8312;SDS011;4194;43.408;24.626;2023-08-01T00:37:23;3.70;;;3.10;;
8312;SDS011;4194;43.408;24.626;2023-08-01T00:39:49;5.80;;;3.50;;
8312;SDS011;4194;43.408;24.626;2023-08-01T00:42:14;3.50;;;3.20;;
8312;SDS011;4194;43.408;24.626;2023-08-01T00:44:41;4.60;;;3.43;;
8312;SDS011;4194;43.408;24.626;2023-08-01T00:47:06;4.43;;;2.80;;
8312;SDS011;4194;43.408;24.626;2023-08-01T00:49:33;5.47;;;3.03;;
8312;SDS011;4194;43.408;24.626;2023-08-01T00:51:59;3.97;;;3.27;;
8312;SDS011;4194;43.408;24.626;2023-08-01T00:54:25;3.40;;;3.10;;
8312;SDS011;4194;43.408;24.626;2023-08-01T00:56:51;5.07;;;3.20;;
8312;SDS011;4194;43.408;24.626;2023-08-01T00:59:17;4.37;;;2.90;;
8312;SDS011;4194;43.408;24.626;2023-08-01T01:01:43;10.17;;;3.27;;
8312;SDS011;4194;43.408;24.626;2023-08-01T01:04:09;6.10;;;2.87;;
8312;SDS011;4194;43.408;24.626;2023-08-01T01:06:43;5.73;;;3.13;;
8312;SDS011;4194;43.408;24.626;2023-08-01T01:09:16;5.13;;;3.17;;
8312;SDS011;4194;43.408;24.626;2023-08-01T01:11:43;6.57;;;3.30;;
8312;SDS011;4194;43.408;24.626;2023-08-01T01:14:09;4.93;;;3.33;;
8312;SDS011;4194;43.408;24.626;2023-08-01T01:16:36;3.73;;;3.20;;
8312;SDS011;4194;43.408;24.626;2023-08-01T01:19:05;3.80;;;3.27;;
8312;SDS011;4194;43.408;24.626;2023-08-01T01:21:33;3.50;;;3.20;;
8312;SDS011;4194;43.408;24.626;2023-08-01T01:24:07;5.53;;;3.10;;
8312;SDS011;4194;43.408;24.626;2023-08-01T01:26:34;5.23;;;3.10;;
8312;SDS011;4194;43.408;24.626;2023-08-01T01:29:02;3.70;;;2.73;;
8312;SDS011;4194;43.408;24.626;2023-08-01T01:31:29;4.97;;;2.87;;
8312;SDS011;4194;43.408;24.626;2023-08-01T01:33:56;4.13;;;2.90;;
8312;SDS011;4194;43.408;24.626;2023-08-01T01:36:22;9.23;;;3.50;;
8312;SDS011;4194;43.408;24.626;2023-08-01T01:38:48;4.67;;;2.90;;
8312;SDS011;4194;43.408;24.626;2023-08-01T01:41:14;4.30;;;3.17;;
8312;SDS011;4194;43.408;24.626;2023-08-01T01:43:39;4.60;;;2.90;;
8312;SDS011;4194;43.408;24.626;2023-08-01T01:46:06;6.03;;;3.20;;
8312;SDS011;4194;43.408;24.626;2023-08-01T01:48:32;5.43;;;2.70;;
8312;SDS011;4194;43.408;24.626;2023-08-01T01:50:57;5.70;;;2.97;;
8312;SDS011;4194;43.408;24.626;2023-08-01T01:53:23;6.53;;;2.90;;
8312;SDS011;4194;43.408;24.626;2023-08-01T01:55:49;3.30;;;3.00;;
8312;SDS011;4194;43.408;24.626;2023-08-01T01:58:14;4.37;;;3.07;;
8312;SDS011;4194;43.408;24.626;2023-08-01T02:00:40;5.83;;;2.93;;
8312;SDS011;4194;43.408;24.626;2023-08-01T02:03:06;4.63;;;2.97;;
8312;SDS011;4194;43.408;24.626;2023-08-01T02:05:35;5.50;;;2.63;;
8312;SDS011;4194;43.408;24.626;2023-08-01T02:08:01;3.27;;;2.90;;
8312;SDS011;4194;43.408;24.626;2023-08-01T02:10:27;7.57;;;3.20;;
8312;SDS011;4194;43.408;24.626;2023-08-01T02:12:52;6.90;;;3.10;;
8312;SDS011;4194;43.408;24.626;2023-08-01T02:15:18;3.83;;;2.73;;
8312;SDS011;4194;43.408;24.626;2023-08-01T02:17:44;3.47;;;3.17;;
8312;SDS011;4194;43.408;24.626;2023-08-01T02:20:09;6.67;;;2.70;;
8312;SDS011;4194;43.408;24.626;2023-08-01T02:22:35;4.27;;;2.90;;
8312;SDS011;4194;43.408;24.626;2023-08-01T02:25:01;3.50;;;2.73;;
8312;SDS011;4194;43.408;24.626;2023-08-01T02:27:27;5.20;;;3.10;;
8312;SDS011;4194;43.408;24.626;2023-08-01T02:29:52;3.97;;;2.80;;
8312;SDS011;4194;43.408;24.626;2023-08-01T02:32:18;4.20;;;3.17;;
8312;SDS011;4194;43.408;24.626;2023-08-01T02:34:44;5.87;;;3.13;;
8312;SDS011;4194;43.408;24.626;2023-08-01T02:37:10;6.97;;;2.80;;
8312;SDS011;4194;43.408;24.626;2023-08-01T02:39:35;4.97;;;3.00;;
8312;SDS011;4194;43.408;24.626;2023-08-01T02:42:03;4.30;;;2.90;;
8312;SDS011;4194;43.408;24.626;2023-08-01T02:44:29;4.20;;;2.70;;
8312;SDS011;4194;43.408;24.626;2023-08-01T02:46:55;7.67;;;3.30;;
8312;SDS011;4194;43.408;24.626;2023-08-01T02:49:21;4.83;;;2.53;;
8312;SDS011;4194;43.408;24.626;2023-08-01T02:51:46;4.73;;;2.97;;
8312;SDS011;4194;43.408;24.626;2023-08-01T02:54:12;4.03;;;3.10;;
8312;SDS011;4194;43.408;24.626;2023-08-01T02:56:37;3.50;;;3.20;;
8312;SDS011;4194;43.408;24.626;2023-08-01T02:59:06;4.03;;;3.03;;
8312;SDS011;4194;43.408;24.626;2023-08-01T03:01:34;3.37;;;3.07;;
8312;SDS011;4194;43.408;24.626;2023-08-01T03:04:02;7.30;;;3.30;;
8312;SDS011;4194;43.408;24.626;2023-08-01T03:06:28;5.43;;;2.93;;
8312;SDS011;4194;43.408;24.626;2023-08-01T03:08:54;4.83;;;3.27;;
8312;SDS011;4194;43.408;24.626;2023-08-01T03:11:20;4.13;;;2.80;;
8312;SDS011;4194;43.408;24.626;2023-08-01T03:13:46;4.37;;;3.00;;
8312;SDS011;4194;43.408;24.626;2023-08-01T03:16:11;5.00;;;3.00;;
8312;SDS011;4194;43.408;24.626;2023-08-01T03:18:37;6.83;;;3.20;;
8312;SDS011;4194;43.408;24.626;2023-08-01T03:21:02;5.20;;;3.13;;
8312;SDS011;4194;43.408;24.626;2023-08-01T03:23:29;5.23;;;3.00;;
8312;SDS011;4194;43.408;24.626;2023-08-01T03:25:55;6.03;;;2.93;;
8312;SDS011;4194;43.408;24.626;2023-08-01T03:28:21;6.43;;;3.40;;
8312;SDS011;4194;43.408;24.626;2023-08-01T03:30:46;4.90;;;3.07;;
8312;SDS011;4194;43.408;24.626;2023-08-01T03:33:15;4.13;;;3.07;;
8312;SDS011;4194;43.408;24.626;2023-08-01T03:35:43;3.73;;;3.07;;
8312;SDS011;4194;43.408;24.626;2023-08-01T03:38:09;6.13;;;3.63;;
8312;SDS011;4194;43.408;24.626;2023-08-01T03:40:34;3.97;;;2.90;;
8312;SDS011;4194;43.408;24.626;2023-08-01T03:43:01;3.60;;;2.87;;
8312;SDS011;4194;43.408;24.626;2023-08-01T03:45:26;5.60;;;3.17;;
8312;SDS011;4194;43.408;24.626;2023-08-01T03:47:52;5.50;;;3.30;;
8312;SDS011;4194;43.408;24.626;2023-08-01T03:50:18;3.90;;;2.80;;
8312;SDS011;4194;43.408;24.626;2023-08-01T03:52:44;6.27;;;3.00;;
8312;SDS011;4194;43.408;24.626;2023-08-01T03:55:10;4.43;;;3.00;;
8312;SDS011;4194;43.408;24.626;2023-08-01T03:57:36;4.63;;;2.97;;
8312;SDS011;4194;43.408;24.626;2023-08-01T04:00:04;7.23;;;3.07;;
8312;SDS011;4194;43.408;24.626;2023-08-01T04:02:31;3.77;;;3.17;;
8312;SDS011;4194;43.408;24.626;2023-08-01T04:04:57;4.33;;;3.00;;
8312;SDS011;4194;43.408;24.626;2023-08-01T04:07:23;5.33;;;3.00;;
8312;SDS011;4194;43.408;24.626;2023-08-01T04:09:48;3.77;;;2.83;;
8312;SDS011;4194;43.408;24.626;2023-08-01T04:12:15;5.30;;;3.27;;
8312;SDS011;4194;43.408;24.626;2023-08-01T04:14:40;4.43;;;3.00;;
8312;SDS011;4194;43.408;24.626;2023-08-01T04:17:06;5.13;;;3.13;;
8312;SDS011;4194;43.408;24.626;2023-08-01T04:19:32;5.93;;;3.50;;
8312;SDS011;4194;43.408;24.626;2023-08-01T04:21:57;4.27;;;3.63;;
8312;SDS011;4194;43.408;24.626;2023-08-01T04:24:23;6.27;;;3.17;;
8312;SDS011;4194;43.408;24.626;2023-08-01T04:26:52;4.17;;;3.33;;
8312;SDS011;4194;43.408;24.626;2023-08-01T04:29:19;5.60;;;3.73;;
8312;SDS011;4194;43.408;24.626;2023-08-01T04:31:44;4.93;;;3.53;;
8312;SDS011;4194;43.408;24.626;2023-08-01T04:34:10;4.37;;;3.97;;
8312;SDS011;4194;43.408;24.626;2023-08-01T04:36:36;8.50;;;3.80;;
8312;SDS011;4194;43.408;24.626;2023-08-01T04:39:01;6.60;;;3.87;;
8312;SDS011;4194;43.408;24.626;2023-08-01T04:41:27;6.17;;;3.43;;
8312;SDS011;4194;43.408;24.626;2023-08-01T04:43:53;6.70;;;3.83;;
8312;SDS011;4194;43.408;24.626;2023-08-01T04:46:18;5.93;;;3.50;;
8312;SDS011;4194;43.408;24.626;2023-08-01T04:48:44;7.13;;;3.10;;
8312;SDS011;4194;43.408;24.626;2023-08-01T04:51:10;7.53;;;3.20;;
8312;SDS011;4194;43.408;24.626;2023-08-01T04:53:35;6.00;;;3.17;;
8312;SDS011;4194;43.408;24.626;2023-08-01T04:56:01;6.17;;;3.30;;
8312;SDS011;4194;43.408;24.626;2023-08-01T04:58:27;6.70;;;3.30;;
8312;SDS011;4194;43.408;24.626;2023-08-01T05:00:52;8.53;;;3.30;;
8312;SDS011;4194;43.408;24.626;2023-08-01T05:03:18;4.87;;;2.33;;
8312;SDS011;4194;43.408;24.626;2023-08-01T05:05:43;6.37;;;2.83;;
8312;SDS011;4194;43.408;24.626;2023-08-01T05:08:09;8.67;;;2.50;;
8312;SDS011;4194;43.408;24.626;2023-08-01T05:10:35;3.23;;;2.20;;
8312;SDS011;4194;43.408;24.626;2023-08-01T05:13:00;3.07;;;2.40;;
8312;SDS011;4194;43.408;24.626;2023-08-01T05:15:27;4.80;;;2.30;;
8312;SDS011;4194;43.408;24.626;2023-08-01T05:17:53;5.80;;;2.40;;
8312;SDS011;4194;43.408;24.626;2023-08-01T05:20:19;5.87;;;2.30;;
8312;SDS011;4194;43.408;24.626;2023-08-01T05:22:45;3.87;;;2.00;;
8312;SDS011;4194;43.408;24.626;2023-08-01T05:25:10;5.20;;;1.93;;
8312;SDS011;4194;43.408;24.626;2023-08-01T05:27:39;4.33;;;2.30;;
8312;SDS011;4194;43.408;24.626;2023-08-01T05:30:05;4.27;;;1.83;;
8312;SDS011;4194;43.408;24.626;2023-08-01T05:32:31;6.77;;;2.20;;
8312;SDS011;4194;43.408;24.626;2023-08-01T05:34:57;4.80;;;2.30;;
8312;SDS011;4194;43.408;24.626;2023-08-01T05:37:22;4.47;;;2.20;;
8312;SDS011;4194;43.408;24.626;2023-08-01T05:39:49;5.73;;;2.60;;
8312;SDS011;4194;43.408;24.626;2023-08-01T05:42:15;6.80;;;2.10;;
8312;SDS011;4194;43.408;24.626;2023-08-01T05:44:41;3.97;;;2.23;;
8312;SDS011;4194;43.408;24.626;2023-08-01T05:47:06;6.77;;;2.30;;
8312;SDS011;4194;43.408;24.626;2023-08-01T05:49:32;5.90;;;2.60;;
8312;SDS011;4194;43.408;24.626;2023-08-01T05:51:58;3.70;;;2.53;;
8312;SDS011;4194;43.408;24.626;2023-08-01T05:54:24;4.77;;;2.50;;
8312;SDS011;4194;43.408;24.626;2023-08-01T05:56:49;7.70;;;2.30;;
8312;SDS011;4194;43.408;24.626;2023-08-01T05:59:15;4.43;;;2.30;;
8312;SDS011;4194;43.408;24.626;2023-08-01T06:01:41;5.73;;;2.80;;
8312;SDS011;4194;43.408;24.626;2023-08-01T06:04:07;5.53;;;2.90;;
8312;SDS011;4194;43.408;24.626;2023-08-01T06:06:32;5.90;;;2.70;;
8312;SDS011;4194;43.408;24.626;2023-08-01T06:08:58;4.43;;;2.30;;
8312;SDS011;4194;43.408;24.626;2023-08-01T06:11:24;3.23;;;2.37;;
8312;SDS011;4194;43.408;24.626;2023-08-01T06:13:51;3.17;;;2.43;;
8312;SDS011;4194;43.408;24.626;2023-08-01T06:16:17;4.63;;;2.80;;
8312;SDS011;4194;43.408;24.626;2023-08-01T06:18:43;3.33;;;2.73;;
8312;SDS011;4194;43.408;24.626;2023-08-01T06:21:08;5.87;;;2.90;;
8312;SDS011;4194;43.408;24.626;2023-08-01T06:23:34;7.47;;;3.53;;
8312;SDS011;4194;43.408;24.626;2023-08-01T06:26:00;6.80;;;2.60;;
8312;SDS011;4194;43.408;24.626;2023-08-01T06:28:25;4.57;;;2.33;;
8312;SDS011;4194;43.408;24.626;2023-08-01T06:30:51;2.90;;;2.30;;
8312;SDS011;4194;43.408;24.626;2023-08-01T06:33:17;5.40;;;2.70;;
8312;SDS011;4194;43.408;24.626;2023-08-01T06:38:33;4.20;;;2.30;;
8312;SDS011;4194;43.408;24.626;2023-08-01T06:40:59;3.27;;;2.40;;
8312;SDS011;4194;43.408;24.626;2023-08-01T06:43:25;5.57;;;3.00;;
8312;SDS011;4194;43.408;24.626;2023-08-01T06:45:50;3.93;;;2.50;;
8312;SDS011;4194;43.408;24.626;2023-08-01T06:48:16;2.37;;;2.03;;
8312;SDS011;4194;43.408;24.626;2023-08-01T06:50:42;6.30;;;2.93;;
8312;SDS011;4194;43.408;24.626;2023-08-01T06:53:08;5.90;;;3.60;;
8312;SDS011;4194;43.408;24.626;2023-08-01T06:55:34;4.43;;;2.50;;
8312;SDS011;4194;43.408;24.626;2023-08-01T06:57:59;4.03;;;2.63;;
8312;SDS011;4194;43.408;24.626;2023-08-01T07:00:25;4.73;;;2.33;;
8312;SDS011;4194;43.408;24.626;2023-08-01T07:02:51;4.30;;;2.30;;
8312;SDS011;4194;43.408;24.626;2023-08-01T07:05:16;3.03;;;2.67;;
8312;SDS011;4194;43.408;24.626;2023-08-01T07:07:42;3.93;;;2.43;;
8312;SDS011;4194;43.408;24.626;2023-08-01T07:10:08;3.57;;;2.60;;
8312;SDS011;4194;43.408;24.626;2023-08-01T07:12:34;4.20;;;2.73;;
8312;SDS011;4194;43.408;24.626;2023-08-01T07:14:59;4.20;;;3.03;;
8312;SDS011;4194;43.408;24.626;2023-08-01T07:17:25;5.23;;;2.20;;
8312;SDS011;4194;43.408;24.626;2023-08-01T07:19:51;2.90;;;2.30;;
8312;SDS011;4194;43.408;24.626;2023-08-01T07:22:16;5.70;;;2.43;;
8312;SDS011;4194;43.408;24.626;2023-08-01T07:24:42;4.10;;;2.50;;
8312;SDS011;4194;43.408;24.626;2023-08-01T07:27:08;6.80;;;2.57;;
8312;SDS011;4194;43.408;24.626;2023-08-01T07:29:33;4.63;;;2.83;;
8312;SDS011;4194;43.408;24.626;2023-08-01T07:31:59;6.80;;;2.67;;
8312;SDS011;4194;43.408;24.626;2023-08-01T07:34:25;11.70;;;2.97;;
8312;SDS011;4194;43.408;24.626;2023-08-01T07:36:50;4.03;;;2.43;;
8312;SDS011;4194;43.408;24.626;2023-08-01T07:39:16;7.17;;;3.00;;
8312;SDS011;4194;43.408;24.626;2023-08-01T07:41:42;6.40;;;2.83;;
8312;SDS011;4194;43.408;24.626;2023-08-01T07:44:07;6.20;;;3.47;;
8312;SDS011;4194;43.408;24.626;2023-08-01T07:46:33;5.07;;;2.57;;
8312;SDS011;4194;43.408;24.626;2023-08-01T07:48:59;3.83;;;2.37;;
8312;SDS011;4194;43.408;24.626;2023-08-01T07:51:25;3.57;;;2.10;;
8312;SDS011;4194;43.408;24.626;2023-08-01T07:53:51;3.93;;;2.43;;
8312;SDS011;4194;43.408;24.626;2023-08-01T07:56:18;4.67;;;2.77;;
8312;SDS011;4194;43.408;24.626;2023-08-01T07:58:44;4.23;;;3.07;;
8312;SDS011;4194;43.408;24.626;2023-08-01T08:01:10;8.77;;;2.90;;
8312;SDS011;4194;43.408;24.626;2023-08-01T08:03:36;7.83;;;3.43;;
8312;SDS011;4194;43.408;24.626;2023-08-01T08:06:01;4.63;;;2.70;;
8312;SDS011;4194;43.408;24.626;2023-08-01T08:08:28;7.23;;;3.40;;
8312;SDS011;4194;43.408;24.626;2023-08-01T08:10:54;6.27;;;2.67;;
8312;SDS011;4194;43.408;24.626;2023-08-01T08:13:20;7.00;;;5.00;;
8312;SDS011;4194;43.408;24.626;2023-08-01T08:15:46;7.43;;;5.57;;
8312;SDS011;4194;43.408;24.626;2023-08-01T08:18:12;5.93;;;3.97;;
8312;SDS011;4194;43.408;24.626;2023-08-01T08:20:41;4.23;;;2.97;;
8312;SDS011;4194;43.408;24.626;2023-08-01T08:23:09;5.20;;;2.70;;
8312;SDS011;4194;43.408;24.626;2023-08-01T08:25:35;6.10;;;3.43;;
8312;SDS011;4194;43.408;24.626;2023-08-01T08:28:01;5.03;;;2.53;;
8312;SDS011;4194;43.408;24.626;2023-08-01T08:30:27;7.10;;;3.30;;
8312;SDS011;4194;43.408;24.626;2023-08-01T08:32:53;7.57;;;3.50;;
8312;SDS011;4194;43.408;24.626;2023-08-01T08:35:18;6.07;;;3.53;;
8312;SDS011;4194;43.408;24.626;2023-08-01T08:37:44;3.23;;;2.93;;
8312;SDS011;4194;43.408;24.626;2023-08-01T08:40:10;4.03;;;3.63;;
8312;SDS011;4194;43.408;24.626;2023-08-01T08:42:37;3.97;;;3.30;;
8312;SDS011;4194;43.408;24.626;2023-08-01T08:45:04;3.87;;;3.47;;
8312;SDS011;4194;43.408;24.626;2023-08-01T08:47:31;4.93;;;3.50;;
8312;SDS011;4194;43.408;24.626;2023-08-01T08:50:03;4.23;;;3.80;;
8312;SDS011;4194;43.408;24.626;2023-08-01T08:52:30;5.67;;;4.00;;
8312;SDS011;4194;43.408;24.626;2023-08-01T08:54:56;7.93;;;4.23;;
8312;SDS011;4194;43.408;24.626;2023-08-01T08:57:22;6.20;;;4.23;;
8312;SDS011;4194;43.408;24.626;2023-08-01T08:59:49;4.90;;;4.20;;
8312;SDS011;4194;43.408;24.626;2023-08-01T09:02:16;4.37;;;3.70;;
8312;SDS011;4194;43.408;24.626;2023-08-01T09:04:42;6.33;;;3.87;;
8312;SDS011;4194;43.408;24.626;2023-08-01T09:07:09;5.53;;;4.47;;
8312;SDS011;4194;43.408;24.626;2023-08-01T09:09:36;6.90;;;3.70;;
8312;SDS011;4194;43.408;24.626;2023-08-01T09:12:02;6.43;;;3.70;;
8312;SDS011;4194;43.408;24.626;2023-08-01T09:14:28;5.17;;;4.60;;
8312;SDS011;4194;43.408;24.626;2023-08-01T09:16:54;5.43;;;4.27;;
8312;SDS011;4194;43.408;24.626;2023-08-01T09:19:21;6.80;;;5.00;;
8312;SDS011;4194;43.408;24.626;2023-08-01T09:21:50;7.00;;;4.50;;
8312;SDS011;4194;43.408;24.626;2023-08-01T09:26:43;7.00;;;4.50;;
8312;SDS011;4194;43.408;24.626;2023-08-01T09:29:09;4.87;;;4.47;;
8312;SDS011;4194;43.408;24.626;2023-08-01T09:31:36;5.30;;;4.40;;
8312;SDS011;4194;43.408;24.626;2023-08-01T09:34:03;5.90;;;5.33;;
8312;SDS011;4194;43.408;24.626;2023-08-01T09:36:43;6.23;;;4.53;;
8312;SDS011;4194;43.408;24.626;2023-08-01T09:39:09;5.53;;;4.67;;
8312;SDS011;4194;43.408;24.626;2023-08-01T09:41:44;7.43;;;5.57;;
8312;SDS011;4194;43.408;24.626;2023-08-01T09:44:11;6.30;;;5.13;;
8312;SDS011;4194;43.408;24.626;2023-08-01T09:46:40;5.27;;;4.83;;
8312;SDS011;4194;43.408;24.626;2023-08-01T09:49:09;7.00;;;4.90;;
8312;SDS011;4194;43.408;24.626;2023-08-01T09:51:45;4.53;;;4.23;;
8312;SDS011;4194;43.408;24.626;2023-08-01T09:54:15;5.40;;;4.90;;
8312;SDS011;4194;43.408;24.626;2023-08-01T09:56:42;6.60;;;5.00;;
8312;SDS011;4194;43.408;24.626;2023-08-01T09:59:10;7.30;;;4.60;;
8312;SDS011;4194;43.408;24.626;2023-08-01T10:01:36;4.97;;;4.47;;
8312;SDS011;4194;43.408;24.626;2023-08-01T10:04:05;5.70;;;5.20;;
8312;SDS011;4194;43.408;24.626;2023-08-01T10:06:34;5.00;;;4.60;;
8312;SDS011;4194;43.408;24.626;2023-08-01T10:09:03;8.90;;;4.87;;
8312;SDS011;4194;43.408;24.626;2023-08-01T10:11:29;7.03;;;4.40;;
8312;SDS011;4194;43.408;24.626;2023-08-01T10:13:58;5.73;;;4.87;;
8312;SDS011;4194;43.408;24.626;2023-08-01T10:16:27;6.37;;;4.77;;
8312;SDS011;4194;43.408;24.626;2023-08-01T10:18:54;5.60;;;5.10;;
8312;SDS011;4194;43.408;24.626;2023-08-01T10:21:21;5.30;;;4.87;;
8312;SDS011;4194;43.408;24.626;2023-08-01T10:23:47;7.20;;;5.40;;
8312;SDS011;4194;43.408;24.626;2023-08-01T10:26:14;12.43;;;5.23;;
8312;SDS011;4194;43.408;24.626;2023-08-01T10:28:41;6.63;;;5.37;;
8312;SDS011;4194;43.408;24.626;2023-08-01T10:31:15;6.27;;;5.33;;
8312;SDS011;4194;43.408;24.626;2023-08-01T10:33:42;5.30;;;4.90;;
8312;SDS011;4194;43.408;24.626;2023-08-01T10:36:16;6.00;;;5.50;;
8312;SDS011;4194;43.408;24.626;2023-08-01T10:38:49;4.70;;;4.30;;
8312;SDS011;4194;43.408;24.626;2023-08-01T10:41:29;6.33;;;5.77;;
8312;SDS011;4194;43.408;24.626;2023-08-01T10:44:13;6.03;;;5.40;;
8312;SDS011;4194;43.408;24.626;2023-08-01T10:46:49;6.60;;;5.73;;
8312;SDS011;4194;43.408;24.626;2023-08-01T10:49:19;6.25;;;5.65;;
8312;SDS011;4194;43.408;24.626;2023-08-01T10:51:46;5.45;;;4.95;;
8312;SDS011;4194;43.408;24.626;2023-08-01T10:54:22;6.20;;;5.10;;
8312;SDS011;4194;43.408;24.626;2023-08-01T10:56:50;5.82;;;5.30;;
8312;SDS011;4194;43.408;24.626;2023-08-01T10:59:23;5.35;;;4.60;;
8312;SDS011;4194;43.408;24.626;2023-08-01T11:01:52;7.40;;;4.97;;
8312;SDS011;4194;43.408;24.626;2023-08-01T11:04:19;7.50;;;4.57;;
8312;SDS011;4194;43.408;24.626;2023-08-01T11:06:47;5.47;;;5.00;;
8312;SDS011;4194;43.408;24.626;2023-08-01T11:09:15;5.38;;;4.78;;
8312;SDS011;4194;43.408;24.626;2023-08-01T11:11:42;6.30;;;4.82;;
8312;SDS011;4194;43.408;24.626;2023-08-01T11:14:08;4.32;;;3.92;;
8312;SDS011;4194;43.408;24.626;2023-08-01T11:16:34;4.63;;;4.05;;
8312;SDS011;4194;43.408;24.626;2023-08-01T11:19:02;4.80;;;4.35;;
8312;SDS011;4194;43.408;24.626;2023-08-01T11:21:28;6.55;;;4.28;;
8312;SDS011;4194;43.408;24.626;2023-08-01T11:23:53;4.57;;;4.28;;
8312;SDS011;4194;43.408;24.626;2023-08-01T11:26:19;5.97;;;4.15;;
8312;SDS011;4194;43.408;24.626;2023-08-01T11:28:45;4.30;;;4.00;;
8312;SDS011;4194;43.408;24.626;2023-08-01T11:31:12;3.80;;;3.50;;
8312;SDS011;4194;43.408;24.626;2023-08-01T11:33:38;4.38;;;3.70;;
8312;SDS011;4194;43.408;24.626;2023-08-01T11:36:04;5.03;;;4.28;;
8312;SDS011;4194;43.408;24.626;2023-08-01T11:38:31;4.53;;;3.80;;
8312;SDS011;4194;43.408;24.626;2023-08-01T11:41:02;4.85;;;3.42;;
8312;SDS011;4194;43.408;24.626;2023-08-01T11:43:41;3.70;;;3.40;;
8312;SDS011;4194;43.408;24.626;2023-08-01T11:46:07;5.07;;;4.13;;
8312;SDS011;4194;43.408;24.626;2023-08-01T11:48:34;3.80;;;3.50;;
8312;SDS011;4194;43.408;24.626;2023-08-01T11:51:01;6.72;;;3.50;;
8312;SDS011;4194;43.408;24.626;2023-08-01T11:53:27;4.65;;;4.05;;
8312;SDS011;4194;43.408;24.626;2023-08-01T11:55:54;5.43;;;3.95;;
8312;SDS011;4194;43.408;24.626;2023-08-01T11:58:34;4.03;;;3.72;;
8312;SDS011;4194;43.408;24.626;2023-08-01T12:01:05;4.07;;;3.67;;
8312;SDS011;4194;43.408;24.626;2023-08-01T12:03:42;3.45;;;3.15;;
8312;SDS011;4194;43.408;24.626;2023-08-01T12:06:26;4.55;;;3.42;;
8312;SDS011;4194;43.408;24.626;2023-08-01T12:09:05;5.32;;;3.60;;
8312;SDS011;4194;43.408;24.626;2023-08-01T12:11:35;3.63;;;3.40;;
8312;SDS011;4194;43.408;24.626;2023-08-01T12:16:45;9.00;;;3.70;;
8312;SDS011;4194;43.408;24.626;2023-08-01T12:19:17;4.43;;;3.72;;
8312;SDS011;4194;43.408;24.626;2023-08-01T12:21:44;6.70;;;3.60;;
8312;SDS011;4194;43.408;24.626;2023-08-01T12:24:10;3.95;;;3.55;;
8312;SDS011;4194;43.408;24.626;2023-08-01T12:26:35;4.80;;;3.58;;
8312;SDS011;4194;43.408;24.626;2023-08-01T12:29:01;3.70;;;3.20;;
8312;SDS011;4194;43.408;24.626;2023-08-01T12:31:27;3.45;;;3.17;;
8312;SDS011;4194;43.408;24.626;2023-08-01T12:33:53;3.97;;;3.30;;
8312;SDS011;4194;43.408;24.626;2023-08-01T12:36:19;4.80;;;3.50;;
8312;SDS011;4194;43.408;24.626;2023-08-01T12:38:45;3.83;;;3.47;;
8312;SDS011;4194;43.408;24.626;2023-08-01T12:41:11;3.83;;;3.20;;
8312;SDS011;4194;43.408;24.626;2023-08-01T12:43:37;3.40;;;3.13;;
8312;SDS011;4194;43.408;24.626;2023-08-01T12:46:03;3.35;;;3.10;;
8312;SDS011;4194;43.408;24.626;2023-08-01T12:48:29;4.55;;;3.08;;
8312;SDS011;4194;43.408;24.626;2023-08-01T12:50:55;3.45;;;3.10;;
8312;SDS011;4194;43.408;24.626;2023-08-01T12:53:21;5.25;;;3.40;;
8312;SDS011;4194;43.408;24.626;2023-08-01T12:55:48;4.05;;;3.10;;
8312;SDS011;4194;43.408;24.626;2023-08-01T12:58:15;3.33;;;3.03;;
8312;SDS011;4194;43.408;24.626;2023-08-01T13:00:42;3.00;;;2.80;;
8312;SDS011;4194;43.408;24.626;2023-08-01T13:03:08;4.90;;;3.33;;
8312;SDS011;4194;43.408;24.626;2023-08-01T13:05:35;3.10;;;2.90;;
8312;SDS011;4194;43.408;24.626;2023-08-01T13:08:01;2.95;;;2.75;;
8312;SDS011;4194;43.408;24.626;2023-08-01T13:10:31;4.40;;;2.90;;
8312;SDS011;4194;43.408;24.626;2023-08-01T13:13:00;3.58;;;3.10;;
8312;SDS011;4194;43.408;24.626;2023-08-01T13:15:26;2.92;;;2.72;;
8312;SDS011;4194;43.408;24.626;2023-08-01T13:17:53;3.03;;;2.83;;
8312;SDS011;4194;43.408;24.626;2023-08-01T13:20:18;2.70;;;2.50;;
8312;SDS011;4194;43.408;24.626;2023-08-01T13:22:45;4.10;;;3.00;;
8312;SDS011;4194;43.408;24.626;2023-08-01T13:25:14;4.68;;;3.03;;
8312;SDS011;4194;43.408;24.626;2023-08-01T13:27:41;2.97;;;2.67;;
8312;SDS011;4194;43.408;24.626;2023-08-01T13:30:07;3.90;;;2.80;;
8312;SDS011;4194;43.408;24.626;2023-08-01T13:32:33;4.65;;;2.60;;
8312;SDS011;4194;43.408;24.626;2023-08-01T13:34:59;3.97;;;2.65;;
8312;SDS011;4194;43.408;24.626;2023-08-01T13:37:25;6.07;;;2.50;;
8312;SDS011;4194;43.408;24.626;2023-08-01T13:39:51;4.70;;;2.80;;
8312;SDS011;4194;43.408;24.626;2023-08-01T13:42:17;3.28;;;2.67;;
8312;SDS011;4194;43.408;24.626;2023-08-01T13:44:43;2.92;;;2.72;;
8312;SDS011;4194;43.408;24.626;2023-08-01T13:47:08;3.85;;;2.40;;
8312;SDS011;4194;43.408;24.626;2023-08-01T13:49:34;2.90;;;2.70;;
8312;SDS011;4194;43.408;24.626;2023-08-01T13:52:00;2.75;;;2.55;;
8312;SDS011;4194;43.408;24.626;2023-08-01T13:54:25;2.85;;;2.65;;
8312;SDS011;4194;43.408;24.626;2023-08-01T13:56:51;3.25;;;2.72;;
8312;SDS011;4194;43.408;24.626;2023-08-01T13:59:18;2.65;;;2.40;;
8312;SDS011;4194;43.408;24.626;2023-08-01T14:01:44;2.85;;;2.65;;
8312;SDS011;4194;43.408;24.626;2023-08-01T14:04:10;4.40;;;2.63;;
8312;SDS011;4194;43.408;24.626;2023-08-01T14:06:39;2.60;;;2.40;;
8312;SDS011;4194;43.408;24.626;2023-08-01T14:09:06;2.67;;;2.47;;
8312;SDS011;4194;43.408;24.626;2023-08-01T14:11:33;2.63;;;2.42;;
8312;SDS011;4194;43.408;24.626;2023-08-01T14:13:59;3.60;;;2.40;;
8312;SDS011;4194;43.408;24.626;2023-08-01T14:16:25;2.30;;;2.10;;
8312;SDS011;4194;43.408;24.626;2023-08-01T14:18:51;2.53;;;2.35;;
8312;SDS011;4194;43.408;24.626;2023-08-01T14:21:17;2.17;;;2.05;;
8312;SDS011;4194;43.408;24.626;2023-08-01T14:23:42;2.67;;;2.47;;
8312;SDS011;4194;43.408;24.626;2023-08-01T14:26:08;3.35;;;2.60;;
8312;SDS011;4194;43.408;24.626;2023-08-01T14:28:34;2.85;;;2.30;;
8312;SDS011;4194;43.408;24.626;2023-08-01T14:31:00;2.80;;;2.60;;
8312;SDS011;4194;43.408;24.626;2023-08-01T14:33:27;2.60;;;2.40;;
8312;SDS011;4194;43.408;24.626;2023-08-01T14:35:53;2.80;;;2.38;;
8312;SDS011;4194;43.408;24.626;2023-08-01T14:38:19;3.92;;;2.50;;
8312;SDS011;4194;43.408;24.626;2023-08-01T14:40:44;2.42;;;2.22;;
8312;SDS011;4194;43.408;24.626;2023-08-01T14:43:10;2.60;;;2.40;;
8312;SDS011;4194;43.408;24.626;2023-08-01T14:45:37;4.18;;;2.63;;
8312;SDS011;4194;43.408;24.626;2023-08-01T14:48:04;2.30;;;2.10;;
8312;SDS011;4194;43.408;24.626;2023-08-01T14:50:30;2.78;;;2.58;;
8312;SDS011;4194;43.408;24.626;2023-08-01T14:52:57;3.78;;;3.17;;
8312;SDS011;4194;43.408;24.626;2023-08-01T14:55:23;5.43;;;2.65;;
8312;SDS011;4194;43.408;24.626;2023-08-01T14:57:48;3.00;;;2.75;;
8312;SDS011;4194;43.408;24.626;2023-08-01T15:00:15;5.57;;;2.30;;
8312;SDS011;4194;43.408;24.626;2023-08-01T15:02:41;2.53;;;2.33;;
8312;SDS011;4194;43.408;24.626;2023-08-01T15:05:07;4.07;;;2.20;;